CheckWX is a tool to help pilots better visualize weather data.  It is not intended as a substitute for an official pre-flight weather briefing.

05:40:49 UTC

KAIO METAR
Atlantic Municipal Airport
Atlantic, Iowa, USA
Current

6 mins ago

KAIO 260535Z AUTO 14003KT 5SM BR OVC006 18/18 A2984 RMK AO2
Observed
Aug-26 @ 05:35 UTC
Wind
  • 140° at 3 KTS
Visibility
5 SM
Flight Rules
IFR
Conditions
Mist
Cloud Levels
  • Overcast at 600' AGL
Temperature
18°C / 64°F
Dewpoint
18°C / 64°F
Humidity
100%
Altimeter
29.84" Hg
Pressure
1010.52 hPa
Previous

26 mins ago

KAIO 260515Z AUTO 14004KT 4SM BR OVC007 18/18 A2984 RMK AO2
Observed
Aug-26 @ 05:15 UTC
Wind
  • 140° at 4 KTS
Visibility
4 SM
Flight Rules
IFR
Conditions
Mist
Cloud Levels
  • Overcast at 700' AGL
Temperature
18°C / 64°F
Dewpoint
18°C / 64°F
Humidity
100%
Altimeter
29.84" Hg
Pressure
1010.52 hPa
Previous

46 mins ago

KAIO 260455Z AUTO VRB04KT 4SM BR OVC007 18/18 A2985 RMK AO2
Observed
Aug-26 @ 04:55 UTC
Wind
  • Variable at 4 KTS
Visibility
4 SM
Flight Rules
IFR
Conditions
Mist
Cloud Levels
  • Overcast at 700' AGL
Temperature
18°C / 64°F
Dewpoint
18°C / 64°F
Humidity
100%
Altimeter
29.85" Hg
Pressure
1010.82 hPa